sensor_id;sensor_type;location;lat;lon;timestamp;pressure;altitude;pressure_sealevel;temperature;humidity
49459;BME280;35354;51.296;16.924;2023-03-05T00:01:23;99391.75;;;2.96;71.33
49459;BME280;35354;51.296;16.924;2023-03-05T00:03:49;99349.41;;;2.71;71.86
49459;BME280;35354;51.296;16.924;2023-03-05T00:06:17;99391.66;;;3.01;72.20
49459;BME280;35354;51.296;16.924;2023-03-05T00:08:42;99389.97;;;2.98;72.08
49459;BME280;35354;51.296;16.924;2023-03-05T00:11:10;99373.84;;;2.90;72.43
49459;BME280;35354;51.296;16.924;2023-03-05T00:13:36;99341.63;;;2.72;72.43
49459;BME280;35354;51.296;16.924;2023-03-05T00:16:07;99384.81;;;3.00;72.33
49459;BME280;35354;51.296;16.924;2023-03-05T00:18:34;99387.34;;;3.02;72.51
49459;BME280;35354;51.296;16.924;2023-03-05T00:20:59;99394.19;;;3.03;72.16
49459;BME280;35354;51.296;16.924;2023-03-05T00:23:25;99355.09;;;2.85;72.58
49459;BME280;35354;51.296;16.924;2023-03-05T00:25:51;99364.44;;;2.91;72.30
49459;BME280;35354;51.296;16.924;2023-03-05T00:28:16;99349.16;;;2.83;72.57
49459;BME280;35354;51.296;16.924;2023-03-05T00:30:41;99370.25;;;2.99;72.16
49459;BME280;35354;51.296;16.924;2023-03-05T00:33:07;99372.06;;;2.95;72.62
49459;BME280;35354;51.296;16.924;2023-03-05T00:35:41;99357.56;;;2.91;72.50
49459;BME280;35354;51.296;16.924;2023-03-05T00:38:06;99342.28;;;2.82;72.87
49459;BME280;35354;51.296;16.924;2023-03-05T00:40:36;99363.41;;;2.98;73.02
49459;BME280;35354;51.296;16.924;2023-03-05T00:43:02;99353.19;;;2.95;73.28
49459;BME280;35354;51.296;16.924;2023-03-05T00:45:28;99360.06;;;2.94;73.36
49459;BME280;35354;51.296;16.924;2023-03-05T00:47:53;99334.63;;;2.81;73.63
49459;BME280;35354;51.296;16.924;2023-03-05T00:50:18;99330.38;;;2.78;74.29
49459;BME280;35354;51.296;16.924;2023-03-05T00:52:44;99340.59;;;2.81;74.16
49459;BME280;35354;51.296;16.924;2023-03-05T00:55:09;99349.00;;;2.91;73.90
49459;BME280;35354;51.296;16.924;2023-03-05T00:57:34;99346.44;;;2.91;74.05
49459;BME280;35354;51.296;16.924;2023-03-05T01:00:00;99341.28;;;2.91;73.91
49459;BME280;35354;51.296;16.924;2023-03-05T01:02:25;99305.63;;;2.74;73.16
49459;BME280;35354;51.296;16.924;2023-03-05T01:04:50;99304.75;;;2.75;73.13
49459;BME280;35354;51.296;16.924;2023-03-05T01:07:16;99298.84;;;2.70;72.91
49459;BME280;35354;51.296;16.924;2023-03-05T01:09:41;99312.47;;;2.73;73.05
49459;BME280;35354;51.296;16.924;2023-03-05T01:12:07;99272.59;;;2.53;73.28
49459;BME280;35354;51.296;16.924;2023-03-05T01:14:32;99309.13;;;2.70;73.62
49459;BME280;35354;51.296;16.924;2023-03-05T01:16:58;99322.66;;;2.78;73.87
49459;BME280;35354;51.296;16.924;2023-03-05T01:19:24;99325.16;;;2.81;74.65
49459;BME280;35354;51.296;16.924;2023-03-05T01:21:49;99290.34;;;2.66;74.64
49459;BME280;35354;51.296;16.924;2023-03-05T01:24:14;99299.69;;;2.70;75.26
49459;BME280;35354;51.296;16.924;2023-03-05T01:26:40;99316.63;;;2.81;75.46
49459;BME280;35354;51.296;16.924;2023-03-05T01:29:05;99309.00;;;2.76;75.38
49459;BME280;35354;51.296;16.924;2023-03-05T01:31:30;99320.97;;;2.79;75.46
49459;BME280;35354;51.296;16.924;2023-03-05T01:33:56;99312.41;;;2.77;75.50
49459;BME280;35354;51.296;16.924;2023-03-05T01:36:21;99309.88;;;2.73;75.66
49459;BME280;35354;51.296;16.924;2023-03-05T01:38:49;99289.59;;;2.60;75.75
49459;BME280;35354;51.296;16.924;2023-03-05T01:41:16;99275.97;;;2.56;75.70
49459;BME280;35354;51.296;16.924;2023-03-05T01:43:42;99295.44;;;2.68;75.67
49459;BME280;35354;51.296;16.924;2023-03-05T01:48:45;99295.44;;;2.68;76.00
49459;BME280;35354;51.296;16.924;2023-03-05T01:51:12;99301.34;;;2.73;75.82
49459;BME280;35354;51.296;16.924;2023-03-05T01:53:38;99293.75;;;2.67;75.73
49459;BME280;35354;51.296;16.924;2023-03-05T01:56:04;99283.66;;;2.58;76.12
49459;BME280;35354;51.296;16.924;2023-03-05T01:58:29;99295.44;;;2.68;76.25
49459;BME280;35354;51.296;16.924;2023-03-05T02:00:55;99301.41;;;2.70;76.31
49459;BME280;35354;51.296;16.924;2023-03-05T02:03:22;99281.16;;;2.55;75.83
49459;BME280;35354;51.296;16.924;2023-03-05T02:05:48;99277.00;;;2.49;75.36
49459;BME280;35354;51.296;16.924;2023-03-05T02:08:17;99287.13;;;2.55;75.39
49459;BME280;35354;51.296;16.924;2023-03-05T02:10:48;99286.25;;;2.58;74.39
49459;BME280;35354;51.296;16.924;2023-03-05T02:13:21;99253.06;;;2.45;74.11
49459;BME280;35354;51.296;16.924;2023-03-05T02:15:47;99253.91;;;2.46;74.34
49459;BME280;35354;51.296;16.924;2023-03-05T02:18:14;99267.41;;;2.56;74.86
49459;BME280;35354;51.296;16.924;2023-03-05T02:20:49;99248.00;;;2.41;75.29
49459;BME280;35354;51.296;16.924;2023-03-05T02:23:16;99260.63;;;2.53;75.30
49459;BME280;35354;51.296;16.924;2023-03-05T02:25:42;99246.28;;;2.41;74.41
49459;BME280;35354;51.296;16.924;2023-03-05T02:28:14;99240.34;;;2.38;74.77
49459;BME280;35354;51.296;16.924;2023-03-05T02:30:40;99258.06;;;2.52;74.26
49459;BME280;35354;51.296;16.924;2023-03-05T02:33:05;99258.06;;;2.53;74.12
49459;BME280;35354;51.296;16.924;2023-03-05T02:35:31;99228.41;;;2.37;73.68
49459;BME280;35354;51.296;16.924;2023-03-05T02:37:56;99230.97;;;2.37;73.69
49459;BME280;35354;51.296;16.924;2023-03-05T02:40:22;99231.81;;;2.37;73.81
49459;BME280;35354;51.296;16.924;2023-03-05T02:42:47;99246.22;;;2.44;73.77
49459;BME280;35354;51.296;16.924;2023-03-05T02:45:13;99193.69;;;2.16;73.50
49459;BME280;35354;51.296;16.924;2023-03-05T02:47:39;99216.59;;;2.27;73.44
49459;BME280;35354;51.296;16.924;2023-03-05T02:50:06;99244.66;;;2.37;73.34
49459;BME280;35354;51.296;16.924;2023-03-05T02:52:32;99237.81;;;2.36;73.42
49459;BME280;35354;51.296;16.924;2023-03-05T02:54:57;99230.28;;;2.27;73.50
49459;BME280;35354;51.296;16.924;2023-03-05T02:57:23;99209.84;;;2.21;73.40
49459;BME280;35354;51.296;16.924;2023-03-05T02:59:49;99210.75;;;2.18;73.23
49459;BME280;35354;51.296;16.924;2023-03-05T03:02:14;99203.88;;;2.19;73.28
49459;BME280;35354;51.296;16.924;2023-03-05T03:04:41;99227.56;;;2.35;73.05
49459;BME280;35354;51.296;16.924;2023-03-05T03:07:07;99210.75;;;2.20;73.10
49459;BME280;35354;51.296;16.924;2023-03-05T03:09:33;99200.56;;;2.14;72.75
49459;BME280;35354;51.296;16.924;2023-03-05T03:12:00;99210.84;;;2.14;73.22
49459;BME280;35354;51.296;16.924;2023-03-05T03:14:26;99204.06;;;2.10;73.34
49459;BME280;35354;51.296;16.924;2023-03-05T03:16:51;99217.63;;;2.18;73.43
49459;BME280;35354;51.296;16.924;2023-03-05T03:19:16;99214.16;;;2.19;73.77
49459;BME280;35354;51.296;16.924;2023-03-05T03:21:42;99216.66;;;2.23;74.16
49459;BME280;35354;51.296;16.924;2023-03-05T03:24:07;99195.56;;;2.08;74.24
49459;BME280;35354;51.296;16.924;2023-03-05T03:26:32;99210.75;;;2.20;74.57
49459;BME280;35354;51.296;16.924;2023-03-05T03:28:58;99203.97;;;2.14;74.95
49459;BME280;35354;51.296;16.924;2023-03-05T03:31:23;99189.59;;;2.06;75.49
49459;BME280;35354;51.296;16.924;2023-03-05T03:33:49;99206.44;;;2.19;75.59
49459;BME280;35354;51.296;16.924;2023-03-05T03:36:14;99202.19;;;2.18;75.34
49459;BME280;35354;51.296;16.924;2023-03-05T03:38:40;99171.69;;;2.03;76.24
49459;BME280;35354;51.296;16.924;2023-03-05T03:41:06;99163.25;;;1.96;76.35
49459;BME280;35354;51.296;16.924;2023-03-05T03:43:33;99172.53;;;2.02;76.82
49459;BME280;35354;51.296;16.924;2023-03-05T03:45:59;99188.59;;;2.13;77.23
49459;BME280;35354;51.296;16.924;2023-03-05T03:48:24;99172.53;;;2.02;77.24
49459;BME280;35354;51.296;16.924;2023-03-05T03:50:49;99159.00;;;1.95;77.34
49459;BME280;35354;51.296;16.924;2023-03-05T03:53:15;99164.06;;;1.98;78.10
49459;BME280;35354;51.296;16.924;2023-03-05T03:55:42;99181.78;;;2.12;78.14
49459;BME280;35354;51.296;16.924;2023-03-05T03:58:07;99183.59;;;2.07;78.25
49459;BME280;35354;51.296;16.924;2023-03-05T04:00:33;99145.38;;;1.91;78.31
49459;BME280;35354;51.296;16.924;2023-03-05T04:02:58;99168.19;;;2.07;78.51
49459;BME280;35354;51.296;16.924;2023-03-05T04:05:24;99140.19;;;1.93;78.85
49459;BME280;35354;51.296;16.924;2023-03-05T04:07:49;99162.06;;;2.12;78.91
49459;BME280;35354;51.296;16.924;2023-03-05T04:10:15;99145.22;;;1.99;79.36
49459;BME280;35354;51.296;16.924;2023-03-05T04:12:41;99132.44;;;1.96;79.51
49459;BME280;35354;51.296;16.924;2023-03-05T04:15:08;99156.09;;;2.10;79.31
49459;BME280;35354;51.296;16.924;2023-03-05T04:17:34;99127.25;;;1.97;79.67
49459;BME280;35354;51.296;16.924;2023-03-05T04:19:59;99129.81;;;1.97;80.00
49459;BME280;35354;51.296;16.924;2023-03-05T04:22:24;99138.16;;;2.09;80.06
49459;BME280;35354;51.296;16.924;2023-03-05T04:24:50;99129.66;;;2.07;80.16
49459;BME280;35354;51.296;16.924;2023-03-05T04:27:15;99144.97;;;2.11;80.67
49459;BME280;35354;51.296;16.924;2023-03-05T04:29:40;99138.16;;;2.09;80.65
49459;BME280;35354;51.296;16.924;2023-03-05T04:32:06;99130.50;;;2.06;80.64
49459;BME280;35354;51.296;16.924;2023-03-05T04:34:31;99125.31;;;2.09;80.62
49459;BME280;35354;51.296;16.924;2023-03-05T04:36:57;99132.97;;;2.10;80.75
49459;BME280;35354;51.296;16.924;2023-03-05T04:39:23;99109.31;;;1.96;80.49
49459;BME280;35354;51.296;16.924;2023-03-05T04:41:48;99115.16;;;2.04;80.55
49459;BME280;35354;51.296;16.924;2023-03-05T04:44:14;99096.53;;;1.94;80.47
49459;BME280;35354;51.296;16.924;2023-03-05T04:46:39;99100.81;;;1.94;80.53
49459;BME280;35354;51.296;16.924;2023-03-05T04:49:05;99132.16;;;2.10;80.65
49459;BME280;35354;51.296;16.924;2023-03-05T04:51:30;99081.41;;;1.79;80.76
49459;BME280;35354;51.296;16.924;2023-03-05T04:53:56;99094.84;;;1.92;81.32
49459;BME280;35354;51.296;16.924;2023-03-05T04:56:21;99120.97;;;2.12;81.98
49459;BME280;35354;51.296;16.924;2023-03-05T04:58:46;99085.47;;;1.91;84.00
49459;BME280;35354;51.296;16.924;2023-03-05T05:01:12;99089.91;;;1.81;85.65
49459;BME280;35354;51.296;16.924;2023-03-05T05:03:37;99103.50;;;1.88;86.75
49459;BME280;35354;51.296;16.924;2023-03-05T05:06:03;99079.13;;;1.64;88.11
49459;BME280;35354;51.296;16.924;2023-03-05T05:08:28;99102.94;;;1.73;88.36
49459;BME280;35354;51.296;16.924;2023-03-05T05:11:02;99105.41;;;1.77;88.97
49459;BME280;35354;51.296;16.924;2023-03-05T05:13:29;99082.47;;;1.69;89.16
49459;BME280;35354;51.296;16.924;2023-03-05T05:15:55;99095.06;;;1.81;89.36
49459;BME280;35354;51.296;16.924;2023-03-05T05:18:20;99070.50;;;1.68;89.93
49459;BME280;35354;51.296;16.924;2023-03-05T05:20:46;99072.28;;;1.66;90.30
49459;BME280;35354;51.296;16.924;2023-03-05T05:23:12;99064.63;;;1.63;90.62
49459;BME280;35354;51.296;16.924;2023-03-05T05:25:37;99079.81;;;1.73;90.53
49459;BME280;35354;51.296;16.924;2023-03-05T05:28:03;99093.31;;;1.83;90.53
49459;BME280;35354;51.296;16.924;2023-03-05T05:30:28;99081.41;;;1.79;90.93
49459;BME280;35354;51.296;16.924;2023-03-05T05:32:54;99095.00;;;1.84;91.18
49459;BME280;35354;51.296;16.924;2023-03-05T05:35:19;99060.28;;;1.66;91.21
49459;BME280;35354;51.296;16.924;2023-03-05T05:37:45;99077.06;;;1.81;91.26
49459;BME280;35354;51.296;16.924;2023-03-05T05:40:11;99069.38;;;1.81;91.10
49459;BME280;35354;51.296;16.924;2023-03-05T05:42:36;99070.25;;;1.82;91.42
49459;BME280;35354;51.296;16.924;2023-03-05T05:45:02;99031.34;;;1.58;91.09
49459;BME280;35354;51.296;16.924;2023-03-05T05:47:28;99084.63;;;1.90;90.79
49459;BME280;35354;51.296;16.924;2023-03-05T05:49:54;99051.53;;;1.75;90.46
49459;BME280;35354;51.296;16.924;2023-03-05T05:52:19;99070.00;;;1.92;90.88
49459;BME280;35354;51.296;16.924;2023-03-05T05:54:45;99051.50;;;1.77;91.00
49459;BME280;35354;51.296;16.924;2023-03-05T05:57:10;99042.06;;;1.79;90.47
49459;BME280;35354;51.296;16.924;2023-03-05T05:59:35;99058.25;;;1.82;90.77
49459;BME280;35354;51.296;16.924;2023-03-05T06:02:01;99046.34;;;1.78;90.33
49459;BME280;35354;51.296;16.924;2023-03-05T06:04:27;99035.25;;;1.78;90.93
49459;BME280;35354;51.296;16.924;2023-03-05T06:06:53;99063.22;;;1.90;91.17
49459;BME280;35354;51.296;16.924;2023-03-05T06:09:18;99069.91;;;1.97;90.87
49459;BME280;35354;51.296;16.924;2023-03-05T06:11:44;99004.84;;;1.58;91.03
49459;BME280;35354;51.296;16.924;2023-03-05T06:14:11;99070.69;;;2.00;91.58
49459;BME280;35354;51.296;16.924;2023-03-05T06:16:37;99045.22;;;1.91;91.03
49459;BME280;35354;51.296;16.924;2023-03-05T06:19:02;99067.13;;;2.06;91.37
49459;BME280;35354;51.296;16.924;2023-03-05T06:21:29;99065.56;;;2.00;91.73
49459;BME280;35354;51.296;16.924;2023-03-05T06:23:55;99062.03;;;2.05;91.64
49459;BME280;35354;51.296;16.924;2023-03-05T06:26:23;99046.78;;;1.97;92.20
49459;BME280;35354;51.296;16.924;2023-03-05T06:28:48;99042.59;;;1.94;92.20
49459;BME280;35354;51.296;16.924;2023-03-05T06:31:16;99032.47;;;1.87;92.65
49459;BME280;35354;51.296;16.924;2023-03-05T06:33:42;99043.44;;;1.95;92.96
49459;BME280;35354;51.296;16.924;2023-03-05T06:36:12;99031.59;;;1.88;93.23
49459;BME280;35354;51.296;16.924;2023-03-05T06:38:39;99035.81;;;1.90;93.54
49459;BME280;35354;51.296;16.924;2023-03-05T06:41:07;99048.25;;;2.09;93.50
49459;BME280;35354;51.296;16.924;2023-03-05T06:43:41;99029.75;;;1.93;93.79
49459;BME280;35354;51.296;16.924;2023-03-05T06:46:10;99053.41;;;2.09;94.24
49459;BME280;35354;51.296;16.924;2023-03-05T06:48:36;99041.50;;;2.05;94.45
49459;BME280;35354;51.296;16.924;2023-03-05T06:51:02;99029.69;;;1.96;94.64
49459;BME280;35354;51.296;16.924;2023-03-05T06:53:27;99046.31;;;2.18;95.02
49459;BME280;35354;51.296;16.924;2023-03-05T06:55:53;99048.78;;;2.24;94.77
49459;BME280;35354;51.296;16.924;2023-03-05T06:58:19;99044.47;;;2.25;95.33
49459;BME280;35354;51.296;16.924;2023-03-05T07:00:44;99028.22;;;2.24;94.85
49459;BME280;35354;51.296;16.924;2023-03-05T07:03:10;99006.03;;;2.20;94.82
49459;BME280;35354;51.296;16.924;2023-03-05T07:05:39;99010.25;;;2.23;94.72
49459;BME280;35354;51.296;16.924;2023-03-05T07:08:05;99042.47;;;2.38;94.94
49459;BME280;35354;51.296;16.924;2023-03-05T07:10:31;99010.25;;;2.23;94.14
49459;BME280;35354;51.296;16.924;2023-03-05T07:12:56;99015.44;;;2.21;94.49
49459;BME280;35354;51.296;16.924;2023-03-05T07:15:23;99017.00;;;2.29;94.24
49459;BME280;35354;51.296;16.924;2023-03-05T07:17:48;99029.75;;;2.32;93.37
49459;BME280;35354;51.296;16.924;2023-03-05T07:20:13;99041.47;;;2.43;93.00
49459;BME280;35354;51.296;16.924;2023-03-05T07:22:39;99043.91;;;2.49;92.93
49459;BME280;35354;51.296;16.924;2023-03-05T07:25:05;99049.13;;;2.46;91.88
49459;BME280;35354;51.296;16.924;2023-03-05T07:27:34;99027.75;;;2.44;92.02
49459;BME280;35354;51.296;16.924;2023-03-05T07:29:59;99031.91;;;2.48;90.89
49459;BME280;35354;51.296;16.924;2023-03-05T07:32:24;99009.00;;;2.41;91.11
49459;BME280;35354;51.296;16.924;2023-03-05T07:34:50;99001.19;;;2.44;90.68
49459;BME280;35354;51.296;16.924;2023-03-05T07:37:15;98992.13;;;2.29;89.87
49459;BME280;35354;51.296;16.924;2023-03-05T07:39:40;99036.16;;;2.51;89.67
49459;BME280;35354;51.296;16.924;2023-03-05T07:42:06;99013.31;;;2.39;88.97
49459;BME280;35354;51.296;16.924;2023-03-05T07:44:31;99034.31;;;2.56;88.17
49459;BME280;35354;51.296;16.924;2023-03-05T07:46:56;99030.78;;;2.60;87.49
49459;BME280;35354;51.296;16.924;2023-03-05T07:49:22;99018.03;;;2.56;86.30
49459;BME280;35354;51.296;16.924;2023-03-05T07:51:48;99032.50;;;2.61;85.36
49459;BME280;35354;51.296;16.924;2023-03-05T07:54:13;99032.41;;;2.64;84.55
49459;BME280;35354;51.296;16.924;2023-03-05T07:56:38;99034.41;;;2.53;83.99
49459;BME280;35354;51.296;16.924;2023-03-05T07:59:06;99033.03;;;2.38;82.91
49459;BME280;35354;51.296;16.924;2023-03-05T08:01:33;98984.88;;;2.11;83.36
49459;BME280;35354;51.296;16.924;2023-03-05T08:03:58;99028.72;;;2.40;82.76
49459;BME280;35354;51.296;16.924;2023-03-05T08:06:24;98998.34;;;2.20;82.95
49459;BME280;35354;51.296;16.924;2023-03-05T08:08:49;98977.91;;;2.14;82.81
49459;BME280;35354;51.296;16.924;2023-03-05T08:11:15;99028.38;;;2.54;82.39
49459;BME280;35354;51.296;16.924;2023-03-05T08:13:42;99006.13;;;2.53;81.69
49459;BME280;35354;51.296;16.924;2023-03-05T08:16:11;99023.59;;;2.74;81.58
49459;BME280;35354;51.296;16.924;2023-03-05T08:18:37;99025.22;;;2.77;81.18
49459;BME280;35354;51.296;16.924;2023-03-05T08:21:02;99018.34;;;2.79;80.21
49459;BME280;35354;51.296;16.924;2023-03-05T08:23:29;99034.19;;;2.96;79.83
49459;BME280;35354;51.296;16.924;2023-03-05T08:25:54;99034.94;;;3.00;78.72
49459;BME280;35354;51.296;16.924;2023-03-05T08:28:20;99015.56;;;2.87;78.64
49459;BME280;35354;51.296;16.924;2023-03-05T08:30:46;99019.19;;;2.80;79.06
49459;BME280;35354;51.296;16.924;2023-03-05T08:33:12;99039.63;;;2.84;78.85
49459;BME280;35354;51.296;16.924;2023-03-05T08:35:38;99017.22;;;2.55;79.38
49459;BME280;35354;51.296;16.924;2023-03-05T08:38:04;99031.44;;;2.68;79.77
49459;BME280;35354;51.296;16.924;2023-03-05T08:40:29;99016.25;;;2.59;79.54
49459;BME280;35354;51.296;16.924;2023-03-05T08:42:54;99028.22;;;2.60;79.96
49459;BME280;35354;51.296;16.924;2023-03-05T08:45:20;99006.31;;;2.44;79.99
49459;BME280;35354;51.296;16.924;2023-03-05T08:47:45;99020.72;;;2.51;80.23
49459;BME280;35354;51.296;16.924;2023-03-05T08:50:11;99017.25;;;2.54;80.72
49459;BME280;35354;51.296;16.924;2023-03-05T08:52:36;99033.25;;;2.65;80.74
49459;BME280;35354;51.296;16.924;2023-03-05T08:55:02;99032.50;;;2.61;80.30
49459;BME280;35354;51.296;16.924;2023-03-05T08:57:27;99022.22;;;2.60;80.31
49459;BME280;35354;51.296;16.924;2023-03-05T08:59:53;99030.72;;;2.63;80.67
49459;BME280;35354;51.296;16.924;2023-03-05T09:02:18;98998.19;;;2.62;80.39
49459;BME280;35354;51.296;16.924;2023-03-05T09:04:43;99023.47;;;2.79;80.73
49459;BME280;35354;51.296;16.924;2023-03-05T09:07:08;99004.00;;;2.69;80.95
49459;BME280;35354;51.296;16.924;2023-03-05T09:09:35;99026.66;;;2.89;80.63
49459;BME280;35354;51.296;16.924;2023-03-05T09:12:01;99007.28;;;2.75;80.70
49459;BME280;35354;51.296;16.924;2023-03-05T09:14:27;99009.84;;;2.75;80.51
49459;BME280;35354;51.296;16.924;2023-03-05T09:16:56;99031.22;;;2.78;81.39
49459;BME280;35354;51.296;16.924;2023-03-05T09:19:22;99012.59;;;2.68;81.98
49459;BME280;35354;51.296;16.924;2023-03-05T09:21:48;98997.38;;;2.60;82.43
49459;BME280;35354;51.296;16.924;2023-03-05T09:24:13;99028.63;;;2.78;82.90
49459;BME280;35354;51.296;16.924;2023-03-05T09:26:38;99020.06;;;2.79;82.92
49459;BME280;35354;51.296;16.924;2023-03-05T09:29:06;99006.31;;;2.80;83.29
49459;BME280;35354;51.296;16.924;2023-03-05T09:31:33;98993.41;;;2.81;83.19
49459;BME280;35354;51.296;16.924;2023-03-05T09:33:58;98994.06;;;2.89;83.06
49459;BME280;35354;51.296;16.924;2023-03-05T09:36:27;99018.31;;;3.13;83.30
49459;BME280;35354;51.296;16.924;2023-03-05T09:38:53;99018.22;;;3.16;82.95
49459;BME280;35354;51.296;16.924;2023-03-05T09:44:41;98997.78;;;3.10;82.51
49459;BME280;35354;51.296;16.924;2023-03-05T09:52:46;99021.97;;;3.36;82.31
49459;BME280;35354;51.296;16.924;2023-03-05T09:55:24;99002.28;;;3.35;81.28
49459;BME280;35354;51.296;16.924;2023-03-05T09:57:53;99019.69;;;3.56;80.58
49459;BME280;35354;51.296;16.924;2023-03-05T10:00:38;98991.66;;;3.47;79.78
49459;BME280;35354;51.296;16.924;2023-03-05T10:03:12;98992.34;;;3.52;79.79
49459;BME280;35354;51.296;16.924;2023-03-05T10:05:52;98992.97;;;3.60;79.24
49459;BME280;35354;51.296;16.924;2023-03-05T10:08:22;99008.06;;;3.72;78.68
49459;BME280;35354;51.296;16.924;2023-03-05T10:10:53;99005.63;;;3.68;77.74
49459;BME280;35354;51.296;16.924;2023-03-05T10:13:25;99003.50;;;3.82;77.47
49459;BME280;35354;51.296;16.924;2023-03-05T10:18:45;98999.94;;;3.86;76.93
49459;BME280;35354;51.296;16.924;2023-03-05T10:21:23;99002.97;;;4.00;76.69
49459;BME280;35354;51.296;16.924;2023-03-05T10:24:08;98996.72;;;4.08;76.90
49459;BME280;35354;51.296;16.924;2023-03-05T10:26:57;98985.00;;;3.97;75.79
49459;BME280;35354;51.296;16.924;2023-03-05T10:42:57;98964.69;;;4.43;74.66
49459;BME280;35354;51.296;16.924;2023-03-05T10:45:43;98950.13;;;4.40;72.80
49459;BME280;35354;51.296;16.924;2023-03-05T10:51:20;98955.16;;;4.45;72.02
49459;BME280;35354;51.296;16.924;2023-03-05T10:56:18;98947.91;;;4.30;72.45
49459;BME280;35354;51.296;16.924;2023-03-05T10:58:45;98920.16;;;4.11;72.16
49459;BME280;35354;51.296;16.924;2023-03-05T11:03:50;98946.91;;;4.07;72.46
49459;BME280;35354;51.296;16.924;2023-03-05T11:06:26;98942.56;;;4.09;72.97
49459;BME280;35354;51.296;16.924;2023-03-05T11:08:52;98919.69;;;3.98;73.29
49459;BME280;35354;51.296;16.924;2023-03-05T11:11:19;98926.50;;;4.01;72.72
49459;BME280;35354;51.296;16.924;2023-03-05T11:16:25;98953.34;;;3.94;73.32
49459;BME280;35354;51.296;16.924;2023-03-05T11:19:19;98952.78;;;3.84;73.81
49459;BME280;35354;51.296;16.924;2023-03-05T11:22:15;98916.34;;;3.68;75.23
49459;BME280;35354;51.296;16.924;2023-03-05T11:24:42;98910.34;;;3.68;76.09
49459;BME280;35354;51.296;16.924;2023-03-05T11:27:31;98924.25;;;3.90;75.95
49459;BME280;35354;51.296;16.924;2023-03-05T11:29:59;98930.69;;;4.04;75.50
49459;BME280;35354;51.296;16.924;2023-03-05T11:32:27;98918.66;;;4.04;75.20
49459;BME280;35354;51.296;16.924;2023-03-05T11:34:54;98922.81;;;4.08;75.40
49459;BME280;35354;51.296;16.924;2023-03-05T11:37:29;98923.09;;;4.00;75.83
49459;BME280;35354;51.296;16.924;2023-03-05T11:40:15;98922.34;;;3.97;76.06
49459;BME280;35354;51.296;16.924;2023-03-05T11:42:42;98881.22;;;3.66;76.32
49459;BME280;35354;51.296;16.924;2023-03-05T11:45:17;98915.00;;;3.85;77.16
49459;BME280;35354;51.296;16.924;2023-03-05T11:47:45;98929.63;;;3.83;77.14
49459;BME280;35354;51.296;16.924;2023-03-05T11:52:49;98925.13;;;3.61;79.30
49459;BME280;35354;51.296;16.924;2023-03-05T12:00:35;98923.13;;;3.43;82.39
49459;BME280;35354;51.296;16.924;2023-03-05T12:03:04;98903.06;;;3.24;83.26
49459;BME280;35354;51.296;16.924;2023-03-05T12:05:33;98885.22;;;3.18;84.09
49459;BME280;35354;51.296;16.924;2023-03-05T12:08:01;98905.75;;;3.49;84.75
49459;BME280;35354;51.296;16.924;2023-03-05T12:10:27;98892.03;;;3.49;83.92
49459;BME280;35354;51.296;16.924;2023-03-05T12:15:55;98876.25;;;3.88;84.04
49459;BME280;35354;51.296;16.924;2023-03-05T12:18:43;98881.72;;;4.05;83.37
49459;BME280;35354;51.296;16.924;2023-03-05T12:23:56;98856.22;;;4.22;82.15
49459;BME280;35354;51.296;16.924;2023-03-05T12:31:51;98852.38;;;4.09;81.25
49459;BME280;35354;51.296;16.924;2023-03-05T12:48:32;98859.38;;;4.04;79.04
49459;BME280;35354;51.296;16.924;2023-03-05T12:53:17;98864.47;;;4.32;78.57
49459;BME280;35354;51.296;16.924;2023-03-05T12:55:59;98857.75;;;4.53;77.62
49459;BME280;35354;51.296;16.924;2023-03-05T12:58:42;98856.81;;;4.56;76.46
49459;BME280;35354;51.296;16.924;2023-03-05T13:04:18;98857.84;;;4.50;76.47
49459;BME280;35354;51.296;16.924;2023-03-05T13:07:00;98844.78;;;4.30;76.19
49459;BME280;35354;51.296;16.924;2023-03-05T13:09:31;98857.47;;;4.36;76.11
49459;BME280;35354;51.296;16.924;2023-03-05T13:12:03;98854.00;;;4.37;75.63
49459;BME280;35354;51.296;16.924;2023-03-05T13:16:56;98852.41;;;4.08;73.59
49459;BME280;35354;51.296;16.924;2023-03-05T13:19:22;98855.34;;;3.97;73.50
49459;BME280;35354;51.296;16.924;2023-03-05T13:22:08;98847.41;;;3.77;71.97
49459;BME280;35354;51.296;16.924;2023-03-05T13:24:35;98866.19;;;3.80;72.62
49459;BME280;35354;51.296;16.924;2023-03-05T13:27:01;98868.09;;;3.73;72.24
49459;BME280;35354;51.296;16.924;2023-03-05T13:29:27;98873.34;;;3.70;71.19
49459;BME280;35354;51.296;16.924;2023-03-05T13:32:00;98862.88;;;3.48;71.42
49459;BME280;35354;51.296;16.924;2023-03-05T13:34:30;98872.94;;;3.56;71.75
49459;BME280;35354;51.296;16.924;2023-03-05T13:36:58;98873.91;;;3.52;71.49
49459;BME280;35354;51.296;16.924;2023-03-05T13:39:38;98869.59;;;3.54;71.83
49459;BME280;35354;51.296;16.924;2023-03-05T13:42:25;98844.25;;;3.12;72.08
49459;BME280;35354;51.296;16.924;2023-03-05T13:44:57;98868.31;;;3.39;72.05
49459;BME280;35354;51.296;16.924;2023-03-05T13:47:28;98867.63;;;3.33;71.73
49459;BME280;35354;51.296;16.924;2023-03-05T13:49:56;98869.03;;;3.15;72.74
49459;BME280;35354;51.296;16.924;2023-03-05T13:52:26;98863.94;;;3.13;72.51
49459;BME280;35354;51.296;16.924;2023-03-05T13:55:14;98860.31;;;3.19;72.18
49459;BME280;35354;51.296;16.924;2023-03-05T13:57:46;98862.91;;;3.19;73.20
49459;BME280;35354;51.296;16.924;2023-03-05T14:00:36;98865.59;;;3.14;74.43
49459;BME280;35354;51.296;16.924;2023-03-05T14:03:22;98858.16;;;3.35;75.29
49459;BME280;35354;51.296;16.924;2023-03-05T14:05:49;98840.97;;;3.35;75.10
49459;BME280;35354;51.296;16.924;2023-03-05T14:08:25;98830.63;;;3.37;75.52
49459;BME280;35354;51.296;16.924;2023-03-05T14:10:52;98850.38;;;3.36;75.42
49459;BME280;35354;51.296;16.924;2023-03-05T14:13:24;98854.59;;;3.09;76.06
49459;BME280;35354;51.296;16.924;2023-03-05T14:16:12;98818.31;;;3.18;76.64
49459;BME280;35354;51.296;16.924;2023-03-05T14:19:02;98851.09;;;3.41;77.02
49459;BME280;35354;51.296;16.924;2023-03-05T14:21:47;98833.09;;;3.40;76.39
49459;BME280;35354;51.296;16.924;2023-03-05T14:24:17;98840.28;;;3.30;76.97